Airfield :
LOGIN :

Register | Disclaimer

   EN    FR    IT 

 










Legend :    VFR   Marginal VFR   IFR   Intensive IFR   Very Intensive IFR
Visi :
Ceiling :
>= 8 km
>= 3000ft
5 to 8 km
1000 to 3000 ft
1500m to 5 km
500 to 1000 ft
800 to 1500m
200 to 500 ft
< 800m
< 200 ft
Symbols :   Thunderstorms  Fog  Heavy snow  Heavy precipitations  Wind > 20 kt
SIGMETs :     Misc.  Thunderstorms  Icing  Turbulence  Mountain Waves  Volcanic Ashes







- Airport Elevation : 7 ft
- IATA code : POW


LJPZ - Portoroz

EXPIRED METARs :
  • 241430Z 22005KT 150V330 9999 FEW050 32/21 Q1013
  • 241400Z 23006KT 160V290 9999 FEW050 31/20 Q1013
  • 241330Z 22011KT 190V250 9999 FEW050 31/21 Q1013
  • 241300Z 23013KT 190V250 9999 FEW050 32/22 Q1013
  • 241230Z 24008KT 200V290 9999 FEW050 33/21 Q1014
  • 241200Z 25009KT 210V280 9999 FEW050 32/20 Q1014

Expired Forecast.
No reported NOTAMs for that airfield.
1 SIGMET reported for the Ljubljana FIR (LJLA) :
 
Embedded thunderstorms
LJLA SIGMET 3 VALID 250630/250800 LJLJ
LJLA LJUBLJANA FIR EMBD TS OBS N4616 E01323 TOP FL390 MOV NE 03KT NC=



MET'MAP, your aeronautical weather chart ! - Copyright ORBIFLY December 2007 - Disclaimer

ORBIFLY MET'MAP TEAM :

Programming & Development : Alexandra Zaïnal
Concept & Development : Baudouin d'Aumeries
Co-Development & Prog : Marc-Olivier Méhu
Technical & hardware support : Manuel Goepfert

Contact : metmap@orbifly.com




SOURCES & CREDITS :

   NOAA